Time;durP1;ratioP1;P1;durP2;ratioP2;P2;SDS_P1;SDS_P2;PMS_P1;PMS_P2;Temp;Humidity;BMP_temperature;BMP_pressure;BME280_temperature;BME280_humidity;BME280_pressure;Samples;Min_cycle;Max_cycle;Signal;HPM_P1;HPM_P2
2023/02/14 00:01:11;;;;;;;31.98;8.80;;;15.50;69.60;;;;;;4227541;27;20046;-74
2023/02/14 00:03:53;;;;;;;25.75;8.60;;;15.60;69.30;;;;;;4227426;27;20050;-74
2023/02/14 00:06:37;;;;;;;26.20;8.88;;;15.60;69.00;;;;;;4225933;28;20054;-73
2023/02/14 00:09:19;;;;;;;31.92;8.90;;;15.60;69.00;;;;;;4210330;28;20410;-74
2023/02/14 00:12:00;;;;;;;36.35;8.80;;;15.70;68.70;;;;;;4210249;28;20059;-74
2023/02/14 00:17:40;;;;;;;29.63;9.32;;;15.60;68.50;;;;;;4226672;27;20057;-74
2023/02/14 00:20:21;;;;;;;29.20;8.18;;;15.60;69.00;;;;;;4227305;28;20611;-73
2023/02/14 00:23:02;;;;;;;29.92;8.75;;;15.70;68.90;;;;;;4211597;28;20509;-75
2023/02/14 00:25:43;;;;;;;25.40;8.45;;;15.80;68.70;;;;;;4226251;27;20181;-75
2023/02/14 00:28:24;;;;;;;29.25;8.55;;;15.90;68.40;;;;;;4225270;27;20058;-74
2023/02/14 00:31:05;;;;;;;38.22;9.30;;;16.00;67.80;;;;;;4226759;28;20069;-72
2023/02/14 00:33:48;;;;;;;27.38;8.73;;;16.00;67.30;;;;;;4227007;28;20124;-74
2023/02/14 00:36:28;;;;;;;14.13;8.40;;;16.00;67.20;;;;;;4225512;28;20046;-73
2023/02/14 00:39:11;;;;;;;20.38;8.60;;;15.90;67.00;;;;;;4211466;28;20173;-73
2023/02/14 00:41:51;;;;;;;22.95;7.97;;;15.90;67.10;;;;;;4226995;27;20038;-73
2023/02/14 00:44:32;;;;;;;24.48;8.57;;;15.90;67.70;;;;;;4224599;28;20041;-73
2023/02/14 00:47:13;;;;;;;22.52;8.02;;;15.90;67.70;;;;;;4223869;27;20046;-73
2023/02/14 00:50:01;;;;;;;15.18;7.40;;;16.00;67.30;;;;;;4209880;28;20435;-73
2023/02/14 00:52:42;;;;;;;16.35;7.30;;;16.10;66.70;;;;;;4209481;28;20402;-73
2023/02/14 00:55:23;;;;;;;18.95;7.38;;;16.10;66.50;;;;;;4218987;27;20409;-74
2023/02/14 00:58:04;;;;;;;15.32;6.93;;;16.00;66.60;;;;;;4223815;28;20196;-74
2023/02/14 01:00:45;;;;;;;13.60;7.30;;;16.10;66.90;;;;;;4223260;27;20177;-74
2023/02/14 01:03:27;;;;;;;21.67;7.70;;;16.10;66.60;;;;;;4225520;28;20406;-74
2023/02/14 01:06:09;;;;;;;18.95;7.38;;;16.20;66.10;;;;;;4224563;28;20058;-73
2023/02/14 01:08:50;;;;;;;26.23;7.38;;;16.20;65.30;;;;;;4208606;28;20047;-74
2023/02/14 01:11:31;;;;;;;27.40;7.43;;;16.20;65.50;;;;;;4209247;28;20061;-74
2023/02/14 01:14:12;;;;;;;31.73;7.80;;;16.10;65.70;;;;;;4212180;28;20136;-74
2023/02/14 01:16:53;;;;;;;34.55;7.70;;;16.10;65.60;;;;;;4210905;28;20042;-74
2023/02/14 01:19:41;;;;;;;40.33;7.47;;;16.10;65.40;;;;;;4224818;27;20046;-73
2023/02/14 01:22:23;;;;;;;37.20;7.30;;;16.10;65.30;;;;;;4225516;27;20124;-74
2023/02/14 01:25:05;;;;;;;31.38;7.22;;;16.00;65.30;;;;;;4224738;28;20050;-74
2023/02/14 01:27:46;;;;;;;34.42;7.57;;;16.00;65.80;;;;;;4209892;28;20089;-72
2023/02/14 01:30:27;;;;;;;31.73;7.55;;;16.00;65.80;;;;;;4209347;28;20116;-73
2023/02/14 01:33:08;;;;;;;23.67;7.00;;;16.00;65.80;;;;;;4209234;28;20418;-73
2023/02/14 01:35:49;;;;;;;38.13;7.60;;;16.00;65.80;;;;;;4210393;28;20184;-73
2023/02/14 01:38:32;;;;;;;30.83;7.68;;;16.00;65.60;;;;;;4225595;28;20050;-72
2023/02/14 01:41:13;;;;;;;25.75;6.85;;;15.90;65.70;;;;;;4224737;28;20508;-73
2023/02/14 01:43:57;;;;;;;29.25;7.80;;;15.90;65.90;;;;;;4225853;28;20385;-71
2023/02/14 01:46:38;;;;;;;25.20;7.55;;;15.80;66.00;;;;;;4224778;28;20050;-71
2023/02/14 01:49:24;;;;;;;37.20;8.67;;;15.70;66.50;;;;;;4225897;28;20050;-71
2023/02/14 01:52:09;;;;;;;24.58;7.97;;;15.70;66.70;;;;;;4210684;28;20114;-71
2023/02/14 01:54:54;;;;;;;23.67;7.78;;;15.70;67.00;;;;;;4213269;28;20051;-71
2023/02/14 01:57:40;;;;;;;28.73;7.45;;;15.70;67.10;;;;;;4213033;28;20047;-72
2023/02/14 02:03:22;;;;;;;28.77;7.97;;;15.70;66.50;;;;;;4225220;28;20042;-72
2023/02/14 02:06:09;;;;;;;24.45;7.28;;;15.70;66.40;;;;;;4224626;28;20054;-71
2023/02/14 02:08:57;;;;;;;23.63;7.70;;;15.70;66.20;;;;;;4210122;28;20046;-74
2023/02/14 02:11:41;;;;;;;25.13;7.80;;;15.60;66.10;;;;;;4224227;28;20513;-73
2023/02/14 02:14:23;;;;;;;31.45;7.53;;;15.60;65.80;;;;;;4227159;28;20091;-74
2023/02/14 02:17:17;;;;;;;27.55;8.10;;;15.50;65.90;;;;;;4228941;27;20414;-74
2023/02/14 02:20:35;;;;;;;32.38;7.97;;;15.40;65.50;;;;;;4227548;28;20100;-74
2023/02/14 02:24:18;;;;;;;34.92;8.82;;;15.40;65.70;;;;;;4227408;28;20116;-75
2023/02/14 02:27:38;;;;;;;23.48;8.32;;;15.40;66.40;;;;;;4158609;28;20053;-72
2023/02/14 02:30:42;;;;;;;;;;;15.40;67.30;;;;;;4160269;28;20064;-71
2023/02/14 02:34:06;;;;;;;10.20;9.20;;;15.50;68.10;;;;;;4214221;28;19930;-72
2023/02/14 02:36:58;;;;;;;10.48;9.48;;;15.60;67.80;;;;;;4228969;27;20050;-74
2023/02/14 02:39:54;;;;;;;10.82;9.80;;;15.70;67.30;;;;;;4227491;28;20382;-72
2023/02/14 02:42:46;;;;;;;10.02;9.02;;;15.70;66.60;;;;;;4227761;27;20418;-74
2023/02/14 02:46:46;;;;;;;10.57;9.07;;;15.70;66.70;;;;;;4222637;27;20058;-71
2023/02/14 02:48:48;;;;;;;10.75;9.75;;;15.60;66.80;;;;;;4228558;27;20129;-73
2023/02/14 02:54:42;;;;;;;10.55;9.48;;;15.60;67.50;;;;;;4196230;28;20046;-72
2023/02/14 02:57:35;;;;;;;9.63;8.73;;;15.70;67.30;;;;;;4211902;28;20245;-72
2023/02/14 03:00:18;;;;;;;10.75;9.68;;;15.70;67.30;;;;;;4222795;28;20073;-65
2023/02/14 03:05:58;;;;;;;11.07;10.07;;;15.70;66.90;;;;;;4211744;28;20153;-66
2023/02/14 03:08:38;;;;;;;;;;;15.70;67.00;;;;;;4212269;28;20612;-65
2023/02/14 03:11:21;;;;;;;11.85;10.00;;;15.60;67.30;;;;;;4211087;28;20481;-65
2023/02/14 03:14:16;;;;;;;11.70;10.15;;;15.60;67.50;;;;;;4211069;28;20629;-64
2023/02/14 03:17:07;;;;;;;11.15;9.75;;;15.60;67.10;;;;;;4215602;28;20095;-65
2023/02/14 03:20:14;;;;;;;13.52;10.95;;;15.60;67.10;;;;;;4225976;27;20120;-64
2023/02/14 03:23:04;;;;;;;12.68;10.90;;;15.70;67.10;;;;;;4227473;27;20047;-64
2023/02/14 03:25:57;;;;;;;11.63;10.50;;;15.80;67.20;;;;;;4226856;27;20137;-65
2023/02/14 03:28:46;;;;;;;13.68;11.15;;;15.90;66.50;;;;;;4226801;27;20049;-65
2023/02/14 03:31:33;;;;;;;12.25;10.90;;;16.10;65.90;;;;;;4210212;28;20059;-65
2023/02/14 03:34:21;;;;;;;11.70;10.50;;;16.30;65.40;;;;;;4222839;27;20050;-65
2023/02/14 03:37:09;;;;;;;12.30;11.00;;;16.30;64.90;;;;;;4226602;28;20063;-65
2023/02/14 03:39:58;;;;;;;12.05;10.68;;;16.40;64.60;;;;;;4225100;28;20042;-64
2023/02/14 03:42:42;;;;;;;12.63;10.88;;;16.40;64.20;;;;;;4211247;28;20054;-65
2023/02/14 03:45:30;;;;;;;12.43;11.13;;;16.40;64.50;;;;;;4227968;27;20544;-64
2023/02/14 03:48:14;;;;;;;11.88;10.50;;;16.40;64.60;;;;;;4227737;27;20498;-65
2023/02/14 03:50:56;;;;;;;13.18;10.85;;;16.40;64.70;;;;;;4226313;27;20045;-64
2023/02/14 03:53:42;;;;;;;13.70;11.77;;;16.40;64.50;;;;;;4226152;27;20054;-63
2023/02/14 03:56:29;;;;;;;12.52;10.88;;;16.40;64.40;;;;;;4227655;27;20124;-65
2023/02/14 03:59:14;;;;;;;13.57;11.40;;;16.30;64.30;;;;;;4221701;27;20043;-64
2023/02/14 04:02:01;;;;;;;12.85;10.88;;;16.30;64.70;;;;;;4209558;28;20043;-65
2023/02/14 04:04:45;;;;;;;15.20;11.13;;;16.20;64.70;;;;;;4210691;28;20605;-64
2023/02/14 04:07:26;;;;;;;13.80;11.40;;;16.30;64.60;;;;;;4219397;28;20042;-65
2023/02/14 04:10:08;;;;;;;12.80;11.45;;;16.30;64.50;;;;;;4221533;27;20070;-64
2023/02/14 04:12:49;;;;;;;11.70;10.52;;;16.40;64.30;;;;;;4210485;28;20047;-65
2023/02/14 04:15:29;;;;;;;11.32;10.20;;;16.40;64.20;;;;;;4225765;28;20046;-65
2023/02/14 04:21:11;;;;;;;13.65;10.60;;;16.50;63.70;;;;;;4209799;28;20140;-65
2023/02/14 04:23:52;;;;;;;;;;;16.50;63.80;;;;;;4222139;28;20049;-65
2023/02/14 04:26:33;;;;;;;14.95;11.38;;;16.50;64.00;;;;;;4226827;28;19946;-64
2023/02/14 04:29:13;;;;;;;13.07;10.63;;;16.50;63.70;;;;;;4226736;27;20070;-64
2023/02/14 04:31:54;;;;;;;13.02;11.55;;;16.50;63.70;;;;;;4211898;28;20047;-65
2023/02/14 04:34:37;;;;;;;12.45;11.15;;;16.50;63.60;;;;;;4226108;27;20050;-65
2023/02/14 04:37:20;;;;;;;13.32;11.40;;;16.50;63.50;;;;;;4227051;28;20089;-65
2023/02/14 04:40:00;;;;;;;12.77;10.90;;;16.40;64.70;;;;;;4224067;28;20051;-64
2023/02/14 04:42:41;;;;;;;13.37;11.97;;;16.40;63.90;;;;;;4225872;28;20048;-65
2023/02/14 04:45:22;;;;;;;12.57;11.18;;;16.40;64.00;;;;;;4211398;27;20047;-65
2023/02/14 04:48:03;;;;;;;15.67;11.03;;;16.40;64.80;;;;;;4210187;28;20056;-65
2023/02/14 04:50:45;;;;;;;13.73;12.23;;;16.40;63.80;;;;;;4213282;28;20054;-66
2023/02/14 04:53:25;;;;;;;13.55;11.10;;;16.40;63.90;;;;;;4226861;27;20050;-64
2023/02/14 04:56:07;;;;;;;13.57;11.82;;;16.30;63.80;;;;;;4224747;27;20063;-64
2023/02/14 04:58:48;;;;;;;14.80;11.68;;;16.30;64.20;;;;;;4221751;27;20059;-64
2023/02/14 05:01:29;;;;;;;14.40;12.02;;;16.20;64.30;;;;;;4209944;28;20121;-65
2023/02/14 05:04:10;;;;;;;15.32;12.10;;;16.20;64.40;;;;;;4208781;28;20051;-65
2023/02/14 05:06:52;;;;;;;17.77;11.60;;;16.10;64.40;;;;;;4196667;28;20185;-64
2023/02/14 05:09:33;;;;;;;15.27;12.02;;;16.10;64.50;;;;;;4220580;27;20054;-65
2023/02/14 05:12:15;;;;;;;12.43;11.10;;;16.00;64.80;;;;;;4226625;27;20049;-64
2023/02/14 05:14:56;;;;;;;14.38;11.40;;;16.10;65.10;;;;;;4226351;28;20508;-65
2023/02/14 05:17:37;;;;;;;14.95;11.55;;;16.10;64.70;;;;;;4226189;28;20058;-65
2023/02/14 05:20:18;;;;;;;13.40;11.52;;;16.10;64.60;;;;;;4226102;28;20129;-65
2023/02/14 05:23:02;;;;;;;13.80;11.80;;;16.20;64.40;;;;;;4213143;28;20513;-64
2023/02/14 05:25:43;;;;;;;13.73;11.63;;;16.20;64.40;;;;;;4211129;28;20504;-65
2023/02/14 05:28:24;;;;;;;14.90;11.13;;;16.10;64.50;;;;;;4224462;27;20066;-65
2023/02/14 05:31:05;;;;;;;15.70;11.85;;;16.10;64.40;;;;;;4224104;27;20394;-65
2023/02/14 05:33:46;;;;;;;13.90;10.77;;;16.10;64.60;;;;;;4226131;28;20046;-65
2023/02/14 05:36:27;;;;;;;15.82;12.88;;;16.00;64.60;;;;;;4225920;28;20051;-65
2023/02/14 05:39:09;;;;;;;13.98;11.85;;;16.00;64.90;;;;;;4212673;28;20417;-65
2023/02/14 05:41:50;;;;;;;15.90;12.13;;;16.00;65.00;;;;;;4207890;28;20055;-64
2023/02/14 05:44:31;;;;;;;16.63;12.13;;;15.90;65.00;;;;;;4224486;28;20054;-64
2023/02/14 05:47:12;;;;;;;15.60;11.50;;;15.90;65.10;;;;;;4225161;28;20051;-65
2023/02/14 05:49:53;;;;;;;13.80;11.75;;;15.80;65.40;;;;;;4210646;28;20055;-64
2023/02/14 05:52:34;;;;;;;14.05;11.93;;;15.80;65.70;;;;;;4224918;28;20497;-65
2023/02/14 05:55:16;;;;;;;14.10;11.27;;;15.80;65.70;;;;;;4225749;28;20145;-64
2023/02/14 05:57:57;;;;;;;15.38;12.27;;;15.80;65.80;;;;;;4223465;27;20055;-64
2023/02/14 06:00:38;;;;;;;16.33;13.30;;;15.80;65.90;;;;;;4225875;28;20047;-64
2023/02/14 06:03:21;;;;;;;14.55;11.85;;;15.80;65.70;;;;;;4225456;28;20501;-64
2023/02/14 06:06:02;;;;;;;15.15;12.32;;;15.80;65.60;;;;;;4225577;28;20181;-64
2023/02/14 06:08:42;;;;;;;17.37;11.83;;;15.80;65.30;;;;;;4208245;28;20532;-64
2023/02/14 06:11:25;;;;;;;15.80;12.23;;;15.80;65.40;;;;;;4222026;28;20778;-65
2023/02/14 06:14:05;;;;;;;14.68;11.73;;;15.80;65.50;;;;;;4210320;28;20297;-65
2023/02/14 06:16:46;;;;;;;15.18;11.88;;;15.80;65.60;;;;;;4225274;28;20050;-65
2023/02/14 06:19:27;;;;;;;16.33;12.02;;;15.90;65.60;;;;;;4220498;28;20067;-64
2023/02/14 06:22:08;;;;;;;16.17;11.45;;;15.90;65.30;;;;;;4225485;28;20735;-65
2023/02/14 06:24:49;;;;;;;15.75;11.93;;;16.00;65.00;;;;;;4224195;28;20046;-65
2023/02/14 06:27:32;;;;;;;18.85;12.63;;;15.90;64.90;;;;;;4224193;28;20482;-65
2023/02/14 06:30:14;;;;;;;15.88;12.23;;;15.90;65.80;;;;;;4210463;28;20055;-64
2023/02/14 06:32:56;;;;;;;14.40;11.80;;;15.80;65.00;;;;;;4217218;28;20078;-64
2023/02/14 06:35:36;;;;;;;16.10;12.88;;;15.80;65.30;;;;;;4224121;28;20047;-64
2023/02/14 06:38:18;;;;;;;17.85;12.15;;;15.80;65.50;;;;;;4207389;28;20055;-64
2023/02/14 06:41:03;;;;;;;15.20;12.97;;;15.80;65.60;;;;;;4208594;28;20058;-65
2023/02/14 06:43:48;;;;;;;16.58;13.30;;;15.90;65.10;;;;;;4223148;28;20181;-66
2023/02/14 06:46:28;;;;;;;16.17;12.52;;;15.90;64.90;;;;;;4223727;28;20058;-65
2023/02/14 06:49:10;;;;;;;18.30;13.00;;;15.80;64.80;;;;;;4208926;28;20478;-65
2023/02/14 06:51:51;;;;;;;17.42;13.43;;;15.90;65.30;;;;;;4225555;28;20050;-64
2023/02/14 06:54:32;;;;;;;18.85;13.65;;;15.90;65.20;;;;;;4225114;28;20054;-65
2023/02/14 06:57:13;;;;;;;16.65;12.88;;;16.00;65.00;;;;;;4225407;28;20047;-71
2023/02/14 06:59:55;;;;;;;14.80;12.00;;;16.00;64.60;;;;;;4228422;27;20101;-72
2023/02/14 07:02:36;;;;;;;17.98;12.82;;;16.00;64.40;;;;;;4226767;27;20054;-71
2023/02/14 07:05:18;;;;;;;18.33;13.32;;;16.00;64.40;;;;;;4196529;28;20055;-71
2023/02/14 07:07:59;;;;;;;17.67;12.57;;;15.90;64.40;;;;;;4209439;28;20075;-71
2023/02/14 07:10:40;;;;;;;21.35;13.95;;;15.90;64.00;;;;;;4210219;28;20051;-72
2023/02/14 07:13:21;;;;;;;50.63;12.77;;;15.90;63.30;;;;;;4193971;28;20062;-71
2023/02/14 07:16:03;;;;;;;64.05;12.77;;;16.00;63.00;;;;;;4214167;27;20139;-73
2023/02/14 07:18:44;;;;;;;59.45;13.43;;;16.00;62.50;;;;;;4225136;27;20050;-72
2023/02/14 07:21:25;;;;;;;40.28;14.70;;;15.90;62.90;;;;;;4193103;28;20048;-73
2023/02/14 07:24:06;;;;;;;32.00;14.35;;;15.90;63.00;;;;;;4225829;27;20124;-74
2023/02/14 07:26:47;;;;;;;;;;;15.90;63.30;;;;;;4212630;28;20452;-73
2023/02/14 07:29:28;;;;;;;39.33;12.35;;;15.90;63.60;;;;;;4227964;27;20021;-71
2023/02/14 07:32:10;;;;;;;59.58;13.13;;;15.90;63.60;;;;;;4227666;27;20054;-72
2023/02/14 07:34:52;;;;;;;46.17;14.48;;;15.90;63.40;;;;;;4225729;28;20061;-70
2023/02/14 07:37:33;;;;;;;41.33;12.75;;;16.00;63.00;;;;;;4221615;27;20055;-72
2023/02/14 07:40:14;;;;;;;38.70;11.63;;;16.00;62.90;;;;;;4225348;27;20081;-71
2023/02/14 07:42:57;;;;;;;30.70;11.48;;;16.10;62.50;;;;;;4227632;27;20057;-71
2023/02/14 07:45:38;;;;;;;15.20;11.13;;;16.00;62.20;;;;;;4226102;27;20084;-70
2023/02/14 07:48:20;;;;;;;23.27;10.55;;;16.00;62.10;;;;;;4211857;28;20124;-66
2023/02/14 07:51:01;;;;;;;20.60;10.32;;;16.00;62.70;;;;;;4217006;28;20070;-65
2023/02/14 07:53:43;;;;;;;16.65;10.35;;;16.00;62.40;;;;;;4226165;27;20502;-65
2023/02/14 07:56:24;;;;;;;13.20;10.00;;;16.10;62.10;;;;;;4225159;28;20047;-71
2023/02/14 07:59:04;;;;;;;15.15;9.68;;;16.20;61.80;;;;;;4227571;27;20714;-70
2023/02/14 08:01:45;;;;;;;14.13;10.23;;;16.20;61.80;;;;;;4226524;27;20051;-70
2023/02/14 08:04:28;;;;;;;39.47;12.07;;;16.20;61.70;;;;;;4227269;28;20051;-71
2023/02/14 08:07:11;;;;;;;18.67;10.13;;;16.30;61.60;;;;;;4220486;27;20040;-71
2023/02/14 08:09:52;;;;;;;34.08;9.95;;;16.20;61.20;;;;;;4225432;28;20567;-71
2023/02/14 08:18:32;;;;;;;34.13;9.25;;;16.00;61.60;;;;;;4226685;28;20050;-65
2023/02/14 08:21:16;;;;;;;59.70;8.85;;;16.00;61.80;;;;;;4210095;28;20237;-65
2023/02/14 08:23:57;;;;;;;52.03;8.85;;;16.00;61.70;;;;;;4208250;28;20104;-64
2023/02/14 08:26:38;;;;;;;56.75;9.07;;;16.00;61.70;;;;;;4223180;28;20062;-65
2023/02/14 08:29:19;;;;;;;44.10;8.45;;;16.00;61.60;;;;;;4226420;27;20055;-64
2023/02/14 08:32:00;;;;;;;42.53;9.05;;;16.00;61.20;;;;;;4226877;27;20054;-65
2023/02/14 08:34:41;;;;;;;89.60;11.27;;;15.90;61.60;;;;;;4226714;28;20051;-63
2023/02/14 08:37:24;;;;;;;55.85;10.52;;;15.90;61.70;;;;;;4225123;28;20062;-64
2023/02/14 08:40:06;;;;;;;75.25;10.70;;;15.90;61.90;;;;;;4225455;28;20050;-64
2023/02/14 08:42:47;;;;;;;49.08;11.73;;;15.90;62.00;;;;;;4213760;27;20069;-65
2023/02/14 08:45:28;;;;;;;81.68;13.45;;;15.80;62.10;;;;;;4225245;27;20054;-64
2023/02/14 08:48:11;;;;;;;64.40;11.85;;;15.80;62.50;;;;;;4221829;27;20089;-65
2023/02/14 08:50:52;;;;;;;65.30;12.25;;;15.80;62.50;;;;;;4209984;28;20055;-64
2023/02/14 08:53:35;;;;;;;42.42;10.88;;;15.80;62.60;;;;;;4226128;27;20051;-64
2023/02/14 08:56:16;;;;;;;38.45;12.15;;;15.70;62.50;;;;;;4224007;27;20062;-64
2023/02/14 08:58:57;;;;;;;42.70;11.40;;;15.70;62.70;;;;;;4225704;27;20185;-64
2023/02/14 09:01:38;;;;;;;20.63;11.63;;;15.60;62.80;;;;;;4226261;28;20043;-65
2023/02/14 09:04:19;;;;;;;15.80;12.25;;;15.60;63.20;;;;;;4224047;28;20362;-64
2023/02/14 09:07:00;;;;;;;14.05;12.48;;;15.50;63.30;;;;;;4226078;27;20096;-65
2023/02/14 09:09:44;;;;;;;16.40;12.70;;;15.50;63.70;;;;;;4226464;27;20517;-65
2023/02/14 09:12:25;;;;;;;14.75;12.30;;;15.40;64.10;;;;;;4210943;28;20102;-64
2023/02/14 09:15:07;;;;;;;15.40;13.00;;;15.30;64.30;;;;;;4224920;28;20054;-65
2023/02/14 09:17:48;;;;;;;15.35;12.65;;;15.30;64.60;;;;;;4224307;27;20050;-65
2023/02/14 09:20:29;;;;;;;15.90;12.98;;;15.30;65.00;;;;;;4208761;28;20136;-64
2023/02/14 09:23:10;;;;;;;17.35;13.23;;;15.20;65.20;;;;;;4208940;28;20391;-65
2023/02/14 09:26:00;;;;;;;14.32;12.77;;;15.10;65.70;;;;;;4209587;28;20055;-65
2023/02/14 09:28:42;;;;;;;16.25;13.65;;;15.10;65.70;;;;;;4219229;28;20505;-64
2023/02/14 09:31:24;;;;;;;15.25;12.48;;;15.10;66.00;;;;;;4224948;28;20058;-66
2023/02/14 09:40:03;;;;;;;15.23;12.50;;;15.30;65.20;;;;;;4225440;28;20070;-66
2023/02/14 09:42:53;;;;;;;16.90;13.30;;;15.40;65.10;;;;;;4209044;28;20055;-61
2023/02/14 09:45:34;;;;;;;15.43;13.20;;;15.40;65.00;;;;;;4225125;28;20513;-61
2023/02/14 09:48:24;;;;;;;16.23;13.13;;;15.40;65.30;;;;;;4218479;28;20072;-62
2023/02/14 09:51:13;;;;;;;16.88;13.55;;;15.40;65.30;;;;;;4211193;28;20059;-61
2023/02/14 09:54:00;;;;;;;18.52;13.70;;;15.40;65.20;;;;;;4209053;28;20489;-61
2023/02/14 09:56:51;;;;;;;15.15;13.07;;;15.50;65.10;;;;;;4212497;28;20062;-61
2023/02/14 09:59:39;;;;;;;18.23;14.65;;;15.60;64.80;;;;;;4220560;28;20062;-61
2023/02/14 10:02:33;;;;;;;18.65;13.38;;;15.80;64.50;;;;;;4222887;28;20050;-61
2023/02/14 10:05:19;;;;;;;17.42;13.23;;;15.90;64.00;;;;;;4225266;28;20054;-61
2023/02/14 10:08:10;;;;;;;19.15;14.65;;;16.00;63.80;;;;;;4225785;28;20192;-60
2023/02/14 10:11:00;;;;;;;17.92;14.32;;;16.00;63.70;;;;;;4225244;28;20063;-63
2023/02/14 10:13:44;;;;;;;18.88;14.25;;;16.00;63.50;;;;;;4206952;28;20071;-61
2023/02/14 10:16:32;;;;;;;17.55;14.05;;;16.10;63.40;;;;;;4223744;28;20134;-61
2023/02/14 10:19:19;;;;;;;17.83;14.80;;;16.10;63.30;;;;;;4219080;28;20043;-66
2023/02/14 10:22:05;;;;;;;19.65;14.27;;;16.10;63.40;;;;;;4221698;28;20406;-66
2023/02/14 10:24:51;;;;;;;17.08;14.20;;;16.00;63.40;;;;;;4224539;28;20046;-65
2023/02/14 10:27:34;;;;;;;18.15;14.93;;;16.00;63.50;;;;;;4221602;28;20042;-66
2023/02/14 10:30:18;;;;;;;14.68;13.15;;;16.00;64.00;;;;;;4214417;28;20062;-64
2023/02/14 10:33:06;;;;;;;16.17;14.02;;;16.00;64.20;;;;;;4225913;28;20510;-65
2023/02/14 10:35:49;;;;;;;14.95;13.32;;;16.00;64.20;;;;;;4212255;28;20077;-63
2023/02/14 10:38:43;;;;;;;16.70;12.65;;;16.00;64.30;;;;;;4211759;28;20544;-65
2023/02/14 10:41:33;;;;;;;18.15;15.75;;;16.00;64.60;;;;;;4227626;27;20050;-66
2023/02/14 10:44:27;;;;;;;18.25;15.50;;;16.10;64.50;;;;;;4213542;27;20121;-65
2023/02/14 10:47:24;;;;;;;20.38;15.70;;;16.20;64.20;;;;;;4211239;27;20173;-66
2023/02/14 10:50:16;;;;;;;18.55;13.60;;;16.30;64.90;;;;;;4211908;28;20063;-65
2023/02/14 10:53:07;;;;;;;17.40;14.85;;;16.30;63.60;;;;;;4217738;28;20059;-64
2023/02/14 10:55:54;;;;;;;20.73;14.45;;;16.30;63.60;;;;;;4228598;27;20042;-65
2023/02/14 10:58:37;;;;;;;17.60;14.30;;;16.20;63.70;;;;;;4211689;28;20509;-65
2023/02/14 11:01:19;;;;;;;17.85;14.88;;;16.20;64.40;;;;;;4216594;27;20394;-65
2023/02/14 11:04:05;;;;;;;20.17;15.70;;;16.10;64.70;;;;;;4220871;27;20054;-65
2023/02/14 11:06:49;;;;;;;19.50;16.23;;;16.10;65.10;;;;;;4221340;28;20432;-65
2023/02/14 11:09:29;;;;;;;19.00;15.52;;;16.10;65.10;;;;;;4216842;28;20134;-65
2023/02/14 11:12:10;;;;;;;17.48;15.60;;;16.10;65.10;;;;;;4228387;28;20054;-66
2023/02/14 11:15:10;;;;;;;18.83;15.95;;;16.10;65.40;;;;;;4227583;27;20077;-67
2023/02/14 11:18:08;;;;;;;18.63;15.63;;;16.10;65.50;;;;;;4213167;28;20177;-66
2023/02/14 11:21:01;;;;;;;19.08;15.68;;;16.00;66.70;;;;;;4213923;28;20144;-65
2023/02/14 11:23:45;;;;;;;19.35;15.38;;;16.00;66.30;;;;;;4221611;27;20055;-65
2023/02/14 11:26:30;;;;;;;19.05;16.17;;;16.00;66.70;;;;;;4226748;28;20043;-65
2023/02/14 11:29:14;;;;;;;22.48;15.60;;;15.90;66.90;;;;;;4210858;28;20051;-66
2023/02/14 11:31:56;;;;;;;23.27;18.30;;;16.00;67.00;;;;;;4209204;28;20069;-66
2023/02/14 11:34:38;;;;;;;;;;;16.00;66.90;;;;;;4203245;27;20182;-66
2023/02/14 11:37:27;;;;;;;21.45;16.38;;;16.00;67.00;;;;;;4227695;28;19927;-65
2023/02/14 11:40:27;;;;;;;21.85;18.02;;;16.10;66.90;;;;;;4212272;27;20051;-69
2023/02/14 11:43:20;;;;;;;22.35;17.13;;;16.20;66.60;;;;;;4227374;27;20496;-65
2023/02/14 11:46:14;;;;;;;22.30;16.60;;;16.30;66.50;;;;;;4212022;28;20050;-65
2023/02/14 11:49:00;;;;;;;20.80;15.30;;;16.40;66.40;;;;;;4227347;28;20051;-65
2023/02/14 11:51:45;;;;;;;25.33;16.83;;;16.40;66.50;;;;;;4216434;28;20047;-66
2023/02/14 11:54:33;;;;;;;24.27;18.45;;;16.40;66.50;;;;;;4224604;28;20050;-65
2023/02/14 11:57:21;;;;;;;23.10;16.23;;;16.40;66.70;;;;;;4210922;28;20067;-66
2023/02/14 12:00:16;;;;;;;22.75;17.80;;;16.40;66.80;;;;;;4227497;28;20066;-65
2023/02/14 12:02:58;;;;;;;22.42;17.77;;;16.40;66.80;;;;;;4225062;28;20064;-66
2023/02/14 12:05:47;;;;;;;24.30;18.45;;;16.30;67.10;;;;;;4223220;27;20513;-65
2023/02/14 12:08:31;;;;;;;25.15;19.52;;;16.30;67.30;;;;;;4210528;28;20089;-65
2023/02/14 12:11:21;;;;;;;23.35;16.25;;;16.30;68.40;;;;;;4210919;28;20067;-73
2023/02/14 12:14:04;;;;;;;23.65;18.33;;;16.30;67.70;;;;;;4224304;27;20184;-72
2023/02/14 12:16:54;;;;;;;21.13;17.23;;;16.30;67.70;;;;;;4226169;27;20083;-72
2023/02/14 12:19:44;;;;;;;25.17;18.42;;;16.30;67.50;;;;;;4212966;27;20128;-72
2023/02/14 12:22:29;;;;;;;25.55;18.73;;;16.40;67.40;;;;;;4226511;27;20062;-73
2023/02/14 12:25:16;;;;;;;22.45;17.08;;;16.30;67.40;;;;;;4226973;27;20402;-72
2023/02/14 12:28:02;;;;;;;24.30;19.45;;;16.30;67.60;;;;;;4226615;28;20043;-71
2023/02/14 12:30:45;;;;;;;24.33;17.98;;;16.30;67.80;;;;;;4227046;27;20038;-71
2023/02/14 12:33:27;;;;;;;22.60;18.25;;;16.30;68.10;;;;;;4226831;27;20406;-71
2023/02/14 12:36:16;;;;;;;24.80;18.88;;;16.20;68.50;;;;;;4226607;27;20063;-71
2023/02/14 12:39:08;;;;;;;22.10;16.15;;;16.20;68.60;;;;;;4226752;28;20079;-71
2023/02/14 12:41:59;;;;;;;24.63;18.92;;;16.20;69.00;;;;;;4226715;28;20062;-70
2023/02/14 12:44:48;;;;;;;25.65;19.67;;;16.20;69.80;;;;;;4226089;28;20413;-70
2023/02/14 12:47:38;;;;;;;25.95;19.58;;;16.10;68.90;;;;;;4221466;27;20069;-68
2023/02/14 12:50:31;;;;;;;30.88;18.48;;;16.10;69.00;;;;;;4211308;28;20508;-69
2023/02/14 12:53:34;;;;;;;25.25;17.15;;;16.00;69.00;;;;;;4209778;28;20051;-69
2023/02/14 12:56:21;;;;;;;28.08;19.50;;;16.00;69.50;;;;;;4208451;28;20055;-69
2023/02/14 12:59:17;;;;;;;24.35;18.80;;;15.90;70.60;;;;;;4209449;28;20062;-63
2023/02/14 13:02:38;;;;;;;24.50;19.65;;;15.90;71.80;;;;;;4209439;28;20063;-63
2023/02/14 13:05:25;;;;;;;25.88;17.98;;;15.80;70.00;;;;;;4168141;28;20510;-62
2023/02/14 13:08:19;;;;;;;25.33;18.35;;;15.80;70.90;;;;;;4192782;28;20396;-63
2023/02/14 13:11:08;;;;;;;26.05;19.67;;;15.80;71.50;;;;;;4192429;28;20437;-63
2023/02/14 13:14:03;;;;;;;27.30;20.38;;;15.70;71.80;;;;;;4195403;28;20148;-64
2023/02/14 13:16:51;;;;;;;30.63;21.65;;;15.70;72.10;;;;;;4220814;28;20092;-63
2023/02/14 13:19:40;;;;;;;25.48;20.25;;;15.70;72.20;;;;;;4226194;27;20058;-63
2023/02/14 13:22:25;;;;;;;26.65;19.42;;;15.70;71.80;;;;;;4221576;28;20066;-62
2023/02/14 13:25:20;;;;;;;25.80;20.00;;;15.70;71.80;;;;;;4226067;28;20105;-62
2023/02/14 13:28:04;;;;;;;26.58;19.88;;;15.70;71.70;;;;;;4224608;28;20513;-63
2023/02/14 13:30:45;;;;;;;25.83;20.40;;;15.70;72.10;;;;;;4226282;28;20220;-63
2023/02/14 13:33:30;;;;;;;28.73;19.83;;;15.70;72.30;;;;;;4224028;28;20058;-63
2023/02/14 13:36:15;;;;;;;27.92;20.05;;;15.80;72.10;;;;;;4210647;28;20390;-63
2023/02/14 13:38:59;;;;;;;25.83;18.98;;;15.80;72.20;;;;;;4226213;28;20125;-63
2023/02/14 13:41:40;;;;;;;27.95;19.55;;;15.80;72.00;;;;;;4226186;28;20398;-63
2023/02/14 13:44:44;;;;;;;27.35;20.00;;;15.80;72.70;;;;;;4225106;28;20173;-62
2023/02/14 13:47:27;;;;;;;27.42;20.27;;;15.80;72.10;;;;;;4225976;28;20050;-63
2023/02/14 13:50:20;;;;;;;26.88;19.38;;;15.80;73.20;;;;;;4224999;28;20054;-62
2023/02/14 13:53:01;;;;;;;32.40;20.23;;;15.80;72.40;;;;;;4225378;27;20043;-63
2023/02/14 13:55:45;;;;;;;28.67;20.58;;;15.80;73.00;;;;;;4225759;28;20054;-63
2023/02/14 13:58:29;;;;;;;26.13;20.10;;;15.80;73.20;;;;;;4225052;27;20188;-62
2023/02/14 14:01:32;;;;;;;30.33;21.20;;;15.80;73.00;;;;;;4225921;28;20051;-63
2023/02/14 14:04:34;;;;;;;31.67;22.77;;;15.90;72.70;;;;;;4225373;28;20066;-63
2023/02/14 14:07:18;;;;;;;30.75;20.80;;;15.90;72.90;;;;;;4227489;27;20497;-64
2023/02/14 14:10:03;;;;;;;32.80;22.60;;;15.90;72.70;;;;;;4223426;27;20502;-63
2023/02/14 14:12:46;;;;;;;28.90;20.95;;;15.90;73.10;;;;;;4214701;28;20050;-63
2023/02/14 14:15:26;;;;;;;29.73;21.42;;;15.90;73.00;;;;;;4214275;28;20055;-62
2023/02/14 14:18:37;;;;;;;26.90;20.30;;;16.00;73.10;;;;;;4213099;28;20050;-63
2023/02/14 14:21:24;;;;;;;28.30;19.80;;;16.00;72.60;;;;;;4197716;28;20413;-62
2023/02/14 14:24:21;;;;;;;27.08;19.98;;;16.00;73.00;;;;;;4208425;28;20055;-63
2023/02/14 14:27:06;;;;;;;29.95;20.70;;;16.00;73.20;;;;;;4213930;28;20059;-63
2023/02/14 14:29:50;;;;;;;26.02;19.38;;;16.00;73.60;;;;;;4230963;27;20046;-63